createdAt,value
2023-01-19T00:01:34.705Z,41.50
2023-01-19T00:04:02.724Z,45.70
2023-01-19T00:06:31.670Z,35.10
2023-01-19T00:08:59.439Z,40.80
2023-01-19T00:11:27.407Z,39.90
2023-01-19T00:13:55.866Z,36.70
2023-01-19T00:16:25.041Z,41.80
2023-01-19T00:18:53.399Z,37.00
2023-01-19T00:21:22.408Z,45.10
2023-01-19T00:23:52.714Z,40.30
2023-01-19T00:26:22.640Z,37.30
2023-01-19T00:28:51.300Z,38.80
2023-01-19T00:31:20.702Z,41.00
2023-01-19T00:33:51.701Z,41.10
2023-01-19T00:36:20.646Z,36.50
2023-01-19T00:38:48.465Z,35.70
2023-01-19T00:41:17.823Z,32.20
2023-01-19T00:43:46.126Z,40.20
2023-01-19T00:46:14.279Z,40.60
2023-01-19T00:48:42.830Z,36.90
2023-01-19T00:51:11.021Z,33.10
2023-01-19T00:53:38.760Z,31.60
2023-01-19T00:56:07.294Z,38.80
2023-01-19T00:58:35.572Z,34.60
2023-01-19T01:01:04.772Z,31.50
2023-01-19T01:03:32.983Z,31.20
2023-01-19T01:06:01.294Z,37.20
2023-01-19T01:08:30.156Z,34.80
2023-01-19T01:10:58.520Z,37.50
2023-01-19T01:13:27.892Z,35.80
2023-01-19T01:15:57.129Z,29.70
2023-01-19T01:18:26.242Z,32.10
2023-01-19T01:21:04.279Z,31.80
2023-01-19T01:23:32.785Z,34.30
2023-01-19T01:26:00.788Z,30.20
2023-01-19T01:28:28.623Z,26.60
2023-01-19T01:30:57.496Z,30.00
2023-01-19T01:33:40.543Z,25.60
2023-01-19T01:36:11.769Z,21.30
2023-01-19T01:38:40.841Z,16.20
2023-01-19T01:41:09.221Z,12.30
2023-01-19T01:43:46.828Z,10.80
2023-01-19T01:46:17.212Z,12.30
2023-01-19T01:49:09.005Z,12.50
2023-01-19T01:51:47.116Z,10.70
2023-01-19T01:54:24.785Z,11.70
2023-01-19T01:56:54.108Z,14.80
2023-01-19T01:59:29.542Z,13.30
2023-01-19T02:02:18.920Z,12.30
2023-01-19T02:04:50.869Z,8.70
2023-01-19T02:07:52.131Z,10.10
2023-01-19T02:10:39.082Z,9.60
2023-01-19T02:13:21.977Z,9.20
2023-01-19T02:15:55.965Z,8.80
2023-01-19T02:18:30.661Z,7.30
2023-01-19T02:21:05.241Z,7.50
2023-01-19T02:23:48.328Z,8.20
2023-01-19T02:26:22.641Z,8.80
2023-01-19T02:28:53.880Z,8.10
2023-01-19T02:31:21.932Z,9.60
2023-01-19T02:33:50.401Z,8.10
2023-01-19T02:36:22.232Z,6.70
2023-01-19T02:38:51.406Z,6.20
2023-01-19T02:41:22.529Z,7.80
2023-01-19T02:43:50.508Z,8.20
2023-01-19T02:46:18.899Z,6.00
2023-01-19T02:48:46.953Z,5.50
2023-01-19T02:51:18.778Z,6.60
2023-01-19T02:54:05.367Z,6.00
2023-01-19T02:56:53.480Z,7.20
2023-01-19T02:59:50.987Z,7.00
2023-01-19T03:05:11.409Z,6.80
2023-01-19T03:08:07.891Z,7.90
2023-01-19T03:10:48.535Z,7.70
2023-01-19T03:13:21.813Z,8.10
2023-01-19T03:15:54.598Z,8.50
2023-01-19T03:18:26.466Z,7.90
2023-01-19T03:20:57.017Z,6.90
2023-01-19T03:23:27.080Z,8.70
2023-01-19T03:25:55.670Z,9.80
2023-01-19T03:28:25.620Z,8.10
2023-01-19T03:30:58.344Z,8.50
2023-01-19T03:33:33.206Z,9.50
2023-01-19T03:36:06.090Z,7.40
2023-01-19T03:38:38.051Z,7.80
2023-01-19T03:41:09.472Z,7.60
2023-01-19T03:43:39.423Z,7.90
2023-01-19T03:46:09.779Z,7.80
2023-01-19T03:48:39.060Z,8.90
2023-01-19T03:51:09.005Z,8.20
2023-01-19T03:53:37.081Z,10.50
2023-01-19T03:56:05.764Z,10.40
2023-01-19T03:58:34.143Z,10.90
2023-01-19T04:01:04.290Z,9.00
2023-01-19T04:03:33.682Z,10.80
2023-01-19T04:06:02.493Z,10.00
2023-01-19T04:08:30.261Z,10.10
2023-01-19T04:10:58.893Z,9.70
2023-01-19T04:13:29.056Z,10.60
2023-01-19T04:16:04.358Z,10.90
2023-01-19T04:18:34.917Z,12.90
2023-01-19T04:21:04.174Z,11.60
2023-01-19T04:23:32.430Z,11.50
2023-01-19T04:26:03.217Z,12.30
2023-01-19T04:28:32.174Z,11.50
2023-01-19T04:30:59.951Z,11.50
2023-01-19T04:33:28.685Z,10.80
2023-01-19T04:35:56.719Z,12.90
2023-01-19T04:38:25.604Z,12.40
2023-01-19T04:40:54.418Z,11.90
2023-01-19T04:43:23.170Z,17.70
2023-01-19T04:45:51.259Z,13.50
2023-01-19T04:48:19.436Z,12.20
2023-01-19T04:50:47.706Z,15.90
2023-01-19T04:53:16.539Z,12.20
2023-01-19T04:55:45.425Z,14.50
2023-01-19T04:58:13.271Z,14.00
2023-01-19T05:00:41.175Z,13.00
2023-01-19T05:03:09.455Z,13.30
2023-01-19T05:05:37.382Z,14.10
2023-01-19T05:08:05.413Z,12.90
2023-01-19T05:10:33.712Z,13.40
2023-01-19T05:13:01.877Z,11.50
2023-01-19T05:15:30.087Z,13.30
2023-01-19T05:17:59.017Z,13.10
2023-01-19T05:20:26.834Z,12.20
2023-01-19T05:22:54.659Z,10.40
2023-01-19T05:25:23.076Z,12.50
2023-01-19T05:27:50.838Z,13.30
2023-01-19T05:30:19.319Z,10.00
2023-01-19T05:32:47.589Z,11.40
2023-01-19T05:35:18.212Z,11.60
2023-01-19T05:37:46.250Z,9.90
2023-01-19T05:40:14.755Z,7.00
2023-01-19T05:42:42.761Z,8.70
2023-01-19T05:45:12.020Z,9.10
2023-01-19T05:47:40.154Z,7.70
2023-01-19T05:50:08.421Z,9.00
2023-01-19T05:52:36.183Z,8.20
2023-01-19T05:55:04.762Z,8.40
2023-01-19T05:57:32.942Z,7.20
2023-01-19T06:00:01.093Z,6.90
2023-01-19T06:02:30.327Z,7.40
2023-01-19T06:04:58.272Z,8.80
2023-01-19T06:07:28.254Z,7.60
2023-01-19T06:09:57.100Z,6.50
2023-01-19T06:12:24.950Z,6.90
2023-01-19T06:14:52.892Z,6.40
2023-01-19T06:17:21.200Z,7.90
2023-01-19T06:19:48.988Z,7.60
2023-01-19T06:22:16.906Z,6.50
2023-01-19T06:24:45.263Z,6.00
2023-01-19T06:27:13.859Z,6.50
2023-01-19T06:29:41.692Z,7.80
2023-01-19T06:32:09.685Z,6.90
2023-01-19T06:34:38.482Z,7.70
2023-01-19T06:37:06.578Z,6.30
2023-01-19T06:39:34.787Z,8.10
2023-01-19T06:42:02.705Z,8.00
2023-01-19T06:44:30.680Z,6.30
2023-01-19T06:47:15.707Z,6.10
2023-01-19T06:49:43.965Z,6.60
2023-01-19T06:52:16.090Z,7.90
2023-01-19T06:54:47.245Z,6.30
2023-01-19T06:57:15.459Z,7.20
2023-01-19T06:59:43.399Z,7.70
2023-01-19T07:02:26.220Z,10.50
2023-01-19T07:04:56.726Z,7.40
2023-01-19T07:07:25.131Z,7.20
2023-01-19T07:09:53.946Z,6.30
2023-01-19T07:12:23.343Z,7.80
2023-01-19T07:14:51.803Z,6.20
2023-01-19T07:17:20.215Z,6.00
2023-01-19T07:19:48.575Z,7.40
2023-01-19T07:22:16.879Z,6.80
2023-01-19T07:24:44.726Z,7.60
2023-01-19T07:27:12.991Z,10.40
2023-01-19T07:29:40.728Z,6.80
2023-01-19T07:32:09.788Z,6.90
2023-01-19T07:34:37.894Z,8.10
2023-01-19T07:37:05.708Z,10.40
2023-01-19T07:39:36.745Z,8.30
2023-01-19T07:42:05.104Z,6.60
2023-01-19T07:44:33.188Z,9.10
2023-01-19T07:47:01.110Z,10.70
2023-01-19T07:49:29.390Z,7.70
2023-01-19T07:51:57.193Z,9.30
2023-01-19T07:54:25.263Z,9.50
2023-01-19T07:56:56.225Z,9.00
2023-01-19T07:59:24.429Z,9.50
2023-01-19T08:01:54.174Z,10.80
2023-01-19T08:04:22.546Z,11.80
2023-01-19T08:06:50.398Z,8.60
2023-01-19T08:09:18.348Z,10.90
2023-01-19T08:11:46.496Z,7.20
2023-01-19T08:14:14.349Z,9.80
2023-01-19T08:16:42.569Z,8.40
2023-01-19T08:19:10.850Z,8.90
2023-01-19T08:21:39.037Z,8.60
2023-01-19T08:24:07.188Z,11.00
2023-01-19T08:26:35.714Z,10.20
2023-01-19T08:29:05.613Z,12.60
2023-01-19T08:31:33.721Z,9.50
2023-01-19T08:34:02.138Z,10.40
2023-01-19T08:36:30.497Z,9.70
2023-01-19T08:38:58.272Z,10.40
2023-01-19T08:41:26.877Z,8.70
2023-01-19T08:43:57.067Z,10.90
2023-01-19T08:46:24.903Z,11.00
2023-01-19T08:48:53.471Z,10.60
2023-01-19T08:51:21.277Z,11.90
2023-01-19T08:53:49.084Z,10.30
2023-01-19T08:56:20.344Z,11.00
2023-01-19T08:58:59.468Z,12.00
2023-01-19T09:01:37.504Z,11.80
2023-01-19T09:04:06.386Z,11.90
2023-01-19T09:06:34.457Z,11.80
2023-01-19T09:09:02.738Z,9.90
2023-01-19T09:11:30.916Z,12.50
2023-01-19T09:13:58.900Z,9.80
2023-01-19T09:16:27.533Z,9.50
2023-01-19T09:18:55.473Z,12.00
2023-01-19T09:21:23.394Z,9.40
2023-01-19T09:23:51.769Z,9.80
2023-01-19T09:26:19.592Z,12.40
2023-01-19T09:28:47.370Z,9.40
2023-01-19T09:31:16.645Z,12.00
2023-01-19T09:33:44.627Z,8.90
2023-01-19T09:36:12.458Z,14.50
2023-01-19T09:38:41.316Z,10.20
2023-01-19T09:41:17.711Z,7.30
2023-01-19T09:43:54.470Z,11.50
2023-01-19T09:46:33.226Z,10.00
2023-01-19T09:49:17.258Z,9.30
2023-01-19T09:51:47.461Z,11.00
2023-01-19T09:54:20.921Z,12.10
2023-01-19T09:56:52.351Z,10.00
2023-01-19T09:59:30.237Z,10.30
2023-01-19T10:01:58.021Z,11.20
2023-01-19T10:04:33.086Z,7.00
2023-01-19T10:07:26.607Z,11.30
2023-01-19T10:10:30.075Z,9.90
2023-01-19T10:15:44.659Z,9.10
2023-01-19T10:18:37.085Z,10.90
2023-01-19T10:21:14.407Z,9.70
2023-01-19T10:23:52.363Z,7.60
2023-01-19T10:26:25.334Z,10.90
2023-01-19T10:28:56.402Z,11.00
2023-01-19T10:31:25.065Z,8.20
2023-01-19T10:33:54.378Z,9.30
2023-01-19T10:36:29.890Z,11.00
2023-01-19T10:38:58.187Z,8.00
2023-01-19T10:41:47.746Z,8.50
2023-01-19T10:44:25.690Z,9.40
2023-01-19T10:46:57.463Z,7.60
2023-01-19T10:49:28.827Z,9.20
2023-01-19T10:51:58.653Z,8.90
2023-01-19T10:54:28.142Z,8.40
2023-01-19T10:57:03.721Z,8.10
2023-01-19T10:59:45.325Z,6.20
2023-01-19T11:02:17.870Z,8.70
2023-01-19T11:04:50.196Z,6.50
2023-01-19T11:07:21.788Z,9.10
2023-01-19T11:09:50.736Z,7.60
2023-01-19T11:12:21.128Z,8.80
2023-01-19T11:14:50.957Z,7.90
2023-01-19T11:17:25.287Z,8.30
2023-01-19T11:19:56.063Z,7.30
2023-01-19T11:22:28.353Z,8.00
2023-01-19T11:25:01.665Z,9.60
2023-01-19T11:27:31.660Z,7.90
2023-01-19T11:30:09.915Z,8.90
2023-01-19T11:32:38.181Z,7.60
2023-01-19T11:35:29.105Z,7.90
2023-01-19T11:38:12.485Z,7.40
2023-01-19T11:40:41.365Z,7.70
2023-01-19T11:43:13.616Z,7.20
2023-01-19T11:45:41.840Z,6.40
2023-01-19T11:48:19.143Z,10.90
2023-01-19T11:50:49.608Z,8.10
2023-01-19T11:53:26.401Z,9.10
2023-01-19T11:56:07.801Z,7.00
2023-01-19T11:58:40.932Z,7.70
2023-01-19T12:01:14.823Z,7.40
2023-01-19T12:03:54.687Z,9.20
2023-01-19T12:06:31.312Z,9.20
2023-01-19T12:09:03.144Z,9.20
2023-01-19T12:11:39.113Z,5.80
2023-01-19T12:14:16.656Z,5.70
2023-01-19T12:16:45.788Z,8.90
2023-01-19T12:19:17.654Z,9.40
2023-01-19T12:21:48.552Z,7.00
2023-01-19T12:24:26.108Z,6.50
2023-01-19T12:26:57.388Z,6.90
2023-01-19T12:29:28.989Z,7.60
2023-01-19T12:32:18.660Z,7.60
2023-01-19T12:34:52.180Z,8.70
2023-01-19T12:37:40.175Z,7.10
2023-01-19T12:40:29.229Z,8.00
2023-01-19T12:43:01.128Z,6.90
2023-01-19T12:45:34.317Z,6.70
2023-01-19T12:48:04.559Z,5.40
2023-01-19T12:50:37.979Z,8.20
2023-01-19T12:53:17.074Z,7.80
2023-01-19T12:55:47.638Z,6.50
2023-01-19T12:58:23.752Z,5.40
2023-01-19T13:01:12.799Z,8.10
2023-01-19T13:03:47.458Z,8.00
2023-01-19T13:06:15.630Z,5.90
2023-01-19T13:08:57.360Z,5.30
2023-01-19T13:11:27.867Z,5.50
2023-01-19T13:14:00.372Z,6.40
2023-01-19T13:16:28.384Z,6.90
2023-01-19T13:18:57.482Z,6.00
2023-01-19T13:21:39.815Z,10.00
2023-01-19T13:24:18.258Z,6.90
2023-01-19T13:26:49.156Z,5.80
2023-01-19T13:29:36.424Z,5.30
2023-01-19T13:32:17.704Z,7.00
2023-01-19T13:34:50.469Z,5.10
2023-01-19T13:39:50.473Z,7.50
2023-01-19T13:42:41.266Z,5.20
2023-01-19T13:45:34.541Z,8.00
2023-01-19T13:48:05.644Z,5.00
2023-01-19T13:50:37.464Z,4.50
2023-01-19T13:53:20.781Z,5.80
2023-01-19T13:55:51.470Z,6.10
2023-01-19T13:58:24.045Z,7.10
2023-01-19T14:00:52.203Z,7.20
2023-01-19T14:03:23.678Z,5.80
2023-01-19T14:05:53.615Z,7.00
2023-01-19T14:08:23.020Z,9.60
2023-01-19T14:10:54.546Z,11.00
2023-01-19T14:13:26.305Z,6.60
2023-01-19T14:15:57.565Z,5.40
2023-01-19T14:18:31.449Z,7.30
2023-01-19T14:21:07.969Z,5.90
2023-01-19T14:24:11.480Z,5.40
2023-01-19T14:29:17.620Z,13.50
2023-01-19T14:32:07.174Z,23.60
2023-01-19T14:34:43.184Z,9.30
2023-01-19T14:37:21.593Z,8.30
2023-01-19T14:39:55.851Z,9.80
2023-01-19T14:42:27.485Z,7.50
2023-01-19T14:44:56.685Z,9.50
2023-01-19T14:47:41.639Z,11.90
2023-01-19T14:50:24.553Z,10.20
2023-01-19T14:52:54.684Z,10.80
2023-01-19T14:56:02.632Z,12.30
2023-01-19T14:58:32.718Z,10.00
2023-01-19T15:01:01.340Z,12.80
2023-01-19T15:03:46.128Z,7.80
2023-01-19T15:06:17.125Z,8.40
2023-01-19T15:08:45.458Z,8.40
2023-01-19T15:11:23.117Z,9.70
2023-01-19T15:13:52.144Z,8.40
2023-01-19T15:16:20.174Z,7.50
2023-01-19T15:18:48.248Z,8.00
2023-01-19T15:21:20.218Z,5.70
2023-01-19T15:23:48.187Z,8.60
2023-01-19T15:26:18.678Z,7.90
2023-01-19T15:28:48.918Z,6.10
2023-01-19T15:31:26.863Z,6.40
2023-01-19T15:33:55.164Z,7.00
2023-01-19T15:36:24.516Z,6.50
2023-01-19T15:38:52.620Z,6.50
2023-01-19T15:41:30.108Z,6.20
2023-01-19T15:43:58.547Z,7.00
2023-01-19T15:46:26.989Z,7.60
2023-01-19T15:48:55.081Z,6.40
2023-01-19T15:51:27.857Z,6.10
2023-01-19T15:53:56.842Z,6.90
2023-01-19T15:56:27.590Z,6.30
2023-01-19T15:58:56.274Z,6.90
2023-01-19T16:01:34.368Z,7.60
2023-01-19T16:04:05.012Z,10.50
2023-01-19T16:06:33.914Z,7.50
2023-01-19T16:09:02.800Z,7.50
2023-01-19T16:11:32.745Z,8.90
2023-01-19T16:14:01.335Z,7.70
2023-01-19T16:16:29.859Z,8.60
2023-01-19T16:18:58.022Z,7.50
2023-01-19T16:21:26.132Z,8.20
2023-01-19T16:23:54.184Z,10.70
2023-01-19T16:26:25.073Z,9.20
2023-01-19T16:28:59.528Z,10.80
2023-01-19T16:31:28.080Z,10.10
2023-01-19T16:33:55.927Z,12.40
2023-01-19T16:36:31.128Z,9.00
2023-01-19T16:39:05.487Z,13.60
2023-01-19T16:41:34.923Z,11.80
2023-01-19T16:44:03.445Z,14.10
2023-01-19T16:46:35.168Z,13.90
2023-01-19T16:49:12.477Z,13.00
2023-01-19T16:51:41.195Z,14.70
2023-01-19T16:54:13.260Z,12.80
2023-01-19T16:56:42.012Z,14.20
2023-01-19T16:59:12.434Z,14.70
2023-01-19T17:01:40.864Z,13.30
2023-01-19T17:04:09.373Z,12.30
2023-01-19T17:06:37.311Z,11.90
2023-01-19T17:09:07.000Z,14.00
2023-01-19T17:11:35.691Z,13.80
2023-01-19T17:14:10.585Z,16.40
2023-01-19T17:16:38.882Z,19.90
2023-01-19T17:19:07.550Z,11.90
2023-01-19T17:21:35.641Z,14.70
2023-01-19T17:24:04.520Z,18.50
2023-01-19T17:26:32.592Z,14.00
2023-01-19T17:29:02.086Z,16.30
2023-01-19T17:31:32.760Z,14.70
2023-01-19T17:34:01.417Z,14.70
2023-01-19T17:36:31.113Z,17.40
2023-01-19T17:39:00.652Z,17.70
2023-01-19T17:41:30.979Z,18.40
2023-01-19T17:44:00.529Z,15.20
2023-01-19T17:46:29.522Z,20.80
2023-01-19T17:49:02.538Z,19.00
2023-01-19T17:51:31.328Z,17.00
2023-01-19T17:53:59.657Z,17.60
2023-01-19T17:56:30.411Z,16.40
2023-01-19T17:58:59.206Z,16.50
2023-01-19T18:01:29.521Z,15.70
2023-01-19T18:03:59.337Z,17.10
2023-01-19T18:06:27.160Z,14.50
2023-01-19T18:08:56.793Z,17.30
2023-01-19T18:11:26.145Z,15.60
2023-01-19T18:13:54.575Z,17.20
2023-01-19T18:16:25.766Z,22.10
2023-01-19T18:18:54.784Z,19.80
2023-01-19T18:21:24.292Z,19.00
2023-01-19T18:23:52.298Z,19.90
2023-01-19T18:26:22.034Z,14.50
2023-01-19T18:28:50.314Z,24.00
2023-01-19T18:31:18.974Z,16.80
2023-01-19T18:33:48.420Z,15.30
2023-01-19T18:36:17.591Z,17.70
2023-01-19T18:38:45.645Z,17.60
2023-01-19T18:41:16.940Z,15.50
2023-01-19T18:43:45.208Z,20.30
2023-01-19T18:46:13.849Z,14.80
2023-01-19T18:48:41.952Z,16.90
2023-01-19T18:51:14.288Z,15.70
2023-01-19T18:53:43.752Z,17.90
2023-01-19T18:56:12.989Z,17.80
2023-01-19T18:58:41.388Z,17.60
2023-01-19T19:01:32.883Z,17.80
2023-01-19T19:04:01.854Z,18.40
2023-01-19T19:06:30.135Z,16.00
2023-01-19T19:08:59.721Z,17.60
2023-01-19T19:11:28.292Z,15.70
2023-01-19T19:13:59.658Z,17.80
2023-01-19T19:16:28.812Z,17.50
2023-01-19T19:18:57.157Z,15.90
2023-01-19T19:21:25.700Z,16.40
2023-01-19T19:23:56.195Z,17.10
2023-01-19T19:26:25.221Z,20.60
2023-01-19T19:28:53.641Z,18.80
2023-01-19T19:31:23.147Z,18.00
2023-01-19T19:33:51.590Z,19.10
2023-01-19T19:36:21.438Z,19.00
2023-01-19T19:38:50.397Z,22.30
2023-01-19T19:41:23.584Z,24.80
2023-01-19T19:43:52.974Z,24.80
2023-01-19T19:46:22.899Z,26.90
2023-01-19T19:48:51.135Z,24.50
2023-01-19T19:51:25.508Z,25.20
2023-01-19T19:53:56.196Z,23.70
2023-01-19T19:56:25.313Z,27.00
2023-01-19T19:58:54.646Z,21.30
2023-01-19T20:01:27.544Z,23.20
2023-01-19T20:03:57.685Z,25.70
2023-01-19T20:06:27.495Z,34.00
2023-01-19T20:08:56.757Z,31.10
2023-01-19T20:11:27.547Z,28.10
2023-01-19T20:13:55.528Z,29.10
2023-01-19T20:16:24.395Z,33.30
2023-01-19T20:18:54.584Z,29.30
2023-01-19T20:21:25.534Z,29.30
2023-01-19T20:23:55.169Z,28.90
2023-01-19T20:26:26.786Z,34.40
2023-01-19T20:28:57.757Z,34.20
2023-01-19T20:31:31.273Z,32.30
2023-01-19T20:34:01.357Z,35.90
2023-01-19T20:36:29.572Z,35.40
2023-01-19T20:38:58.021Z,35.80
2023-01-19T20:41:26.649Z,39.40
2023-01-19T20:43:54.968Z,32.90
2023-01-19T20:46:23.140Z,35.20
2023-01-19T20:48:53.641Z,40.90
2023-01-19T20:51:22.825Z,34.30
2023-01-19T20:53:50.993Z,37.30
2023-01-19T20:56:18.949Z,38.10
2023-01-19T20:58:47.008Z,34.90
2023-01-19T21:01:21.240Z,39.60
2023-01-19T21:03:49.502Z,38.20
2023-01-19T21:06:18.987Z,39.20
2023-01-19T21:08:47.229Z,39.90
2023-01-19T21:11:15.513Z,37.90
2023-01-19T21:13:43.554Z,37.90
2023-01-19T21:16:11.639Z,45.70
2023-01-19T21:18:40.147Z,41.90
2023-01-19T21:21:14.986Z,41.80
2023-01-19T21:23:50.299Z,41.90
2023-01-19T21:26:18.383Z,41.00
2023-01-19T21:28:46.280Z,32.60
2023-01-19T21:31:14.617Z,32.30
2023-01-19T21:33:42.943Z,40.00
2023-01-19T21:36:11.155Z,38.30
2023-01-19T21:38:39.809Z,39.20
2023-01-19T21:41:11.274Z,42.30
2023-01-19T21:43:42.068Z,43.40
2023-01-19T21:46:15.024Z,43.20
2023-01-19T21:48:43.087Z,48.70
2023-01-19T21:51:12.173Z,66.00
2023-01-19T21:53:40.518Z,77.00
2023-01-19T21:56:10.872Z,67.00
2023-01-19T21:58:39.085Z,69.20
2023-01-19T22:01:14.086Z,60.70
2023-01-19T22:03:43.661Z,66.50
2023-01-19T22:06:13.400Z,55.50
2023-01-19T22:08:42.086Z,50.50
2023-01-19T22:11:11.920Z,48.30
2023-01-19T22:13:39.996Z,47.70
2023-01-19T22:16:11.235Z,46.60
2023-01-19T22:18:41.293Z,54.50
2023-01-19T22:21:10.252Z,49.40
2023-01-19T22:23:38.717Z,47.60
2023-01-19T22:26:08.122Z,50.70
2023-01-19T22:28:36.582Z,42.50
2023-01-19T22:31:08.872Z,45.20
2023-01-19T22:33:37.397Z,50.20
2023-01-19T22:36:26.750Z,48.20
2023-01-19T22:38:57.871Z,47.00
2023-01-19T22:41:41.075Z,51.50
2023-01-19T22:44:12.666Z,41.10
2023-01-19T22:46:40.541Z,39.10
2023-01-19T22:49:10.439Z,43.30
2023-01-19T22:51:38.741Z,43.20
2023-01-19T22:54:06.902Z,40.00
2023-01-19T22:56:37.195Z,43.30
2023-01-19T22:59:06.296Z,49.10
2023-01-19T23:01:40.081Z,44.90
2023-01-19T23:04:12.103Z,45.10
2023-01-19T23:06:40.531Z,46.80
2023-01-19T23:09:11.939Z,45.30
2023-01-19T23:11:42.563Z,43.90
2023-01-19T23:14:15.618Z,41.30
2023-01-19T23:19:12.425Z,47.10
2023-01-19T23:21:40.992Z,42.00
2023-01-19T23:24:09.568Z,42.80
2023-01-19T23:26:38.512Z,44.80
2023-01-19T23:29:09.950Z,40.80
2023-01-19T23:31:40.208Z,42.50
2023-01-19T23:34:09.646Z,43.20
2023-01-19T23:36:39.136Z,46.10
2023-01-19T23:39:19.683Z,37.00
2023-01-19T23:41:48.158Z,45.60
2023-01-19T23:44:17.447Z,41.40
2023-01-19T23:46:46.043Z,43.90
2023-01-19T23:49:13.922Z,44.50
2023-01-19T23:51:42.052Z,40.50
2023-01-19T23:54:10.102Z,38.70
2023-01-19T23:56:38.461Z,45.60
2023-01-19T23:59:14.683Z,46.80
